Latest Weather Observations for Nhill Aerodrome

IDV60801

Issued at 5:32 am EST Friday 29 April 2016 (issued every 30 minutes, with the page automatically refreshed every 10 minutes)

About weather observations | Map of weather stations | Latest weather observations for VIC | Other Formats
Station Details ID: 078015 Name: NHILL AERODROME Lat: -36.31 Lon: 141.65 Height: 138.9 m
Data from the previous 72 hours. | See also: Recent months at Nhill Aerodrome
Date/Time
EST
Temp
°C
App
Temp
°C
Dew
Point
Rel
Hum
%
Delta-T
°C
Wind Press
QNH
hPa
Press
MSL
hPa
Rain
since 9 am
mm
Dir
 
Spd
km/h
Gust
km/h
Spd
kts
Gust
kts
29/05:30am 16.4 15.5 10.5 68 3.2 NW 6 7 3 4 1013.9 1013.7 0.8
29/05:00am 15.9 15.7 10.4 70 2.9 NW 2 6 1 3 1013.9 1013.7 0.8
29/04:30am 16.4 12.3 10.0 66 3.4 W 22 33 12 18 1014.2 1014.0 0.8
29/04:25am 16.6 11.3 10.0 65 3.5 WNW 28 46 15 25 1014.5 1014.3 0.8
29/04:18am 17.5 13.5 9.2 58 4.4 NNW 20 46 11 25 1015.0 1014.8 0.8
29/04:00am 17.8 14.9 8.1 53 5.0 NE 13 20 7 11 1012.8 1012.7 0.8
29/03:30am 18.1 14.4 7.8 51 5.3 NE 17 20 9 11 1012.4 1012.3 0.8
29/03:00am 16.8 14.6 9.2 61 4.0 ENE 11 11 6 6 1013.2 1013.0 0.8
29/02:30am 16.3 14.5 10.8 70 3.0 SSW 11 17 6 9 1014.0 1013.8 0.8
29/02:00am 17.3 16.1 9.7 61 4.0 NW 6 11 3 6 1014.5 1014.3 0.8
29/01:30am 17.7 14.4 9.6 59 4.3 NE 17 20 9 11 1013.8 1013.6 0.8
29/01:00am 17.3 14.6 10.4 64 3.7 NE 15 19 8 10 1013.8 1013.6 0.8
29/12:30am 17.7 14.7 10.8 64 3.7 NE 17 22 9 12 1014.2 1014.0 0.8
29/12:00am 18.0 16.3 11.3 65 3.7 NE 11 17 6 9 1014.9 1014.7 0.8
 
Date/Time
EST
Temp
°C
App
Temp
°C
Dew
Point
Rel
Hum
%
Delta-T
°C
Wind Press
QNH
hPa
Press
MSL
hPa
Rain
since 9 am
mm
Dir
 
Spd
km/h
Gust
km/h
Spd
kts
Gust
kts
28/11:30pm 18.1 15.8 11.7 66 3.5 NE 15 20 8 11 1015.0 1014.8 0.8
28/11:00pm 18.4 15.1 11.7 65 3.7 NE 20 24 11 13 1015.0 1014.8 0.8
28/10:30pm 18.0 15.8 12.2 69 3.2 NE 15 20 8 11 1015.5 1015.3 0.6
28/10:00pm 17.6 16.4 12.7 73 2.7 NE 11 17 6 9 1015.7 1015.5 0.6
28/09:30pm 17.4 15.5 12.9 75 2.5 NE 15 19 8 10 1015.8 1015.6 0.6
28/09:00pm 17.4 15.5 12.9 75 2.5 ENE 15 19 8 10 1015.8 1015.6 0.6
28/08:30pm 16.3 14.8 13.2 82 1.7 ENE 13 17 7 9 1015.7 1015.5 0.6
28/08:00pm 16.7 14.5 13.4 81 1.9 E 17 20 9 11 1015.5 1015.3 0.6
28/07:30pm 17.5 15.3 13.4 77 2.3 ENE 17 19 9 10 1015.8 1015.6 0.6
28/07:00pm 17.0 15.9 14.3 84 1.6 E 13 15 7 8 1015.6 1015.4 0.6
28/06:30pm 17.6 16.7 14.9 84 1.6 ENE 13 15 7 8 1015.9 1015.7 0.6
28/06:00pm 18.1 17.6 15.0 82 1.8 ENE 11 15 6 8 1015.9 1015.7 0.6
28/05:30pm 19.0 18.0 14.7 76 2.5 ENE 13 17 7 9 1015.8 1015.6 0.6
28/05:00pm 19.7 20.1 14.7 73 2.9 N 6 7 3 4 1016.3 1016.1 0.6
28/04:30pm 20.0 20.3 14.6 71 3.2 N 6 7 3 4 1016.3 1016.1 0.6
28/04:00pm 20.1 21.5 14.5 70 3.3 CALM 0 0 0 0 1016.6 1016.4 0.6
28/03:30pm 20.0 21.6 14.8 72 3.1 CALM 0 0 0 0 1016.2 1016.0 0.6
28/03:00pm 20.2 20.4 14.1 68 3.5 E 6 9 3 5 1016.4 1016.2 0.4
28/02:30pm 20.1 20.9 14.7 71 3.2 SW 4 9 2 5 1016.2 1016.0 0.4
28/02:00pm 20.1 19.8 14.5 70 3.3 NW 9 13 5 7 1017.1 1016.9 0.4
28/01:30pm 20.3 20.7 13.7 66 3.8 NW 4 9 2 5 1017.3 1017.1 0.4
28/01:00pm 20.3 20.4 14.0 67 3.7 NW 6 11 3 6 1017.4 1017.2 0.4
28/12:30pm 19.9 20.7 13.6 67 3.6 N 2 7 1 4 1017.6 1017.4 0.4
28/12:00pm 19.6 19.6 14.2 71 3.1 ENE 7 9 4 5 1017.8 1017.7 0.4
28/11:30am 19.1 19.0 15.0 77 2.4 ENE 9 15 5 8 1017.6 1017.4 0.4
28/11:00am 17.8 16.3 14.1 79 2.1 E 15 19 8 10 1017.4 1017.2 0.4
28/10:30am 17.3 16.5 14.0 81 1.9 E 11 15 6 8 1017.8 1017.7 0.4
28/10:00am 16.3 16.6 13.4 83 1.6 SSE 4 9 2 5 1018.2 1018.1 0.4
28/09:30am 16.2 16.5 13.3 83 1.6 SW 4 7 2 4 1018.7 1018.6 0.4
28/09:00am 16.5 15.9 12.3 76 2.3 W 7 11 4 6 1018.6 1018.5 0.0
28/08:30am 16.6 15.3 11.3 71 2.9 SW 9 13 5 7 1018.1 1018.0 0.0
28/08:00am 16.3 14.2 11.2 72 2.8 SW 13 15 7 8 1017.6 1017.4 0.0
28/07:30am 16.2 15.2 12.2 77 2.2 NW 9 11 5 6 1016.8 1016.6 0.0
28/07:00am 16.5 15.2 11.4 72 2.8 NW 9 11 5 6 1016.7 1016.5 0.0
28/06:30am 16.9 16.0 11.2 69 3.1 NNW 7 9 4 5 1016.4 1016.2 0.0
28/06:00am 17.4 15.7 11.2 67 3.4 NNW 11 15 6 8 1016.4 1016.2 0.0
28/05:30am 17.4 15.9 10.5 64 3.7 NW 9 13 5 7 1015.7 1015.5 0.0
28/05:00am 18.3 15.8 9.6 57 4.6 WNW 13 19 7 10 1015.6 1015.4 0.0
28/04:30am 19.7 16.2 5.4 39 7.1 NW 13 19 7 10 1015.6 1015.4 0.0
28/04:00am 20.2 15.5 5.1 37 7.4 NW 19 24 10 13 1015.5 1015.3 0.0
28/03:30am 21.3 15.9 4.4 33 8.3 NNW 22 32 12 17 1014.9 1014.7 0.0
28/03:00am 20.8 16.7 4.4 34 8.0 NNW 15 19 8 10 1015.0 1014.8 0.0
28/02:30am 20.8 16.3 4.4 34 8.0 N 17 24 9 13 1014.7 1014.5 0.0
28/02:00am 20.8 17.1 4.4 34 8.0 N 13 20 7 11 1014.7 1014.5 0.0
28/01:30am 20.8 17.1 4.4 34 8.0 N 13 20 7 11 1014.7 1014.5 0.0
28/01:00am 21.0 16.6 4.6 34 8.0 N 17 24 9 13 1014.6 1014.4 0.0
28/12:30am 21.3 16.8 4.4 33 8.3 N 17 28 9 15 1014.6 1014.4 0.0
28/12:00am 21.6 17.2 4.7 33 8.3 N 17 26 9 14 1014.9 1014.7 0.0
 
Date/Time
EST
Temp
°C
App
Temp
°C
Dew
Point
Rel
Hum
%
Delta-T
°C
Wind Press
QNH
hPa
Press
MSL
hPa
Rain
since 9 am
mm
Dir
 
Spd
km/h
Gust
km/h
Spd
kts
Gust
kts
27/11:30pm 21.0 17.3 4.6 34 8.0 N 13 20 7 11 1014.8 1014.6 0.0
27/11:00pm 21.1 17.0 4.6 34 8.1 NNE 15 24 8 13 1014.8 1014.6 0.0
27/10:30pm 21.0 17.0 5.0 35 7.9 NNE 15 20 8 11 1014.7 1014.5 0.0
27/10:00pm 20.7 17.0 4.7 35 7.8 NNE 13 19 7 10 1014.9 1014.7 0.0
27/09:30pm 20.8 16.8 4.8 35 7.9 NNE 15 20 8 11 1014.8 1014.6 0.0
27/09:00pm 21.1 17.4 4.6 34 8.1 NNE 13 20 7 11 1014.8 1014.6 0.0
27/08:30pm 21.4 17.7 4.5 33 8.3 NNE 13 19 7 10 1014.8 1014.6 0.0
27/08:00pm 22.0 18.7 4.6 32 8.6 NNE 11 17 6 9 1015.0 1014.8 0.0
27/07:30pm 22.5 19.6 4.5 31 8.9 NNE 9 15 5 8 1014.8 1014.6 0.0
27/07:00pm 23.1 19.8 4.6 30 9.2 N 11 20 6 11 1014.7 1014.5 0.0
27/06:30pm 24.3 20.3 5.1 29 9.7 N 15 20 8 11 1014.8 1014.6 0.0
27/06:00pm 24.7 20.7 5.0 28 10.0 N 15 24 8 13 1014.6 1014.4 0.0
27/05:30pm 25.3 20.6 5.0 27 10.3 N 19 28 10 15 1014.3 1014.1 0.0
27/05:00pm 25.9 20.2 4.9 26 10.7 N 24 35 13 19 1014.3 1014.1 0.0
27/04:30pm 26.2 20.6 5.2 26 10.8 N 24 35 13 19 1014.2 1014.0 0.0
27/04:00pm 26.5 20.0 4.9 25 11.0 N 28 39 15 21 1014.3 1014.1 0.0
27/03:30pm 26.5 20.8 4.9 25 11.1 NNW 24 39 13 21 1014.3 1014.1 0.0
27/03:00pm 26.4 19.7 5.4 26 10.8 NNW 30 44 16 24 1014.2 1014.0 0.0
27/02:30pm 26.6 19.4 5.0 25 11.1 NNW 32 48 17 26 1014.3 1014.1 0.0
27/02:02pm 26.8 19.6 5.1 25 11.2 NNW 32 50 17 27 1014.5 1014.3 0.0
27/02:00pm 26.8 19.0 5.1 25 11.2 NNW 35 50 19 27 1014.6 1014.4 0.0
27/01:30pm 27.2 19.9 5.5 25 11.3 NNW 33 52 18 28 1014.7 1014.5 0.0
27/01:01pm 26.4 19.7 5.4 26 10.8 N 30 48 16 26 1015.1 1014.9 0.0
27/01:00pm 26.4 19.3 5.4 26 10.8 N 32 48 17 26 1015.0 1014.8 0.0
27/12:30pm 26.3 18.2 5.3 26 10.8 NNW 37 56 20 30 1015.3 1015.1 0.0
27/12:00pm 26.4 19.1 5.4 26 10.8 NNW 33 54 18 29 1015.8 1015.6 0.0
27/11:30am 25.8 18.7 5.4 27 10.5 N 32 52 17 28 1016.0 1015.8 0.0
27/11:26am 25.5 18.4 5.7 28 10.2 N 32 50 17 27 1016.1 1015.9 0.0
27/11:00am 24.3 18.5 6.1 31 9.4 N 26 43 14 23 1016.6 1016.4 0.0
27/10:30am 24.2 18.7 6.0 31 9.4 N 24 43 13 23 1016.9 1016.7 0.0
27/10:00am 22.9 17.8 6.2 34 8.5 N 22 35 12 19 1017.3 1017.1 0.0
27/09:30am 20.7 16.7 6.6 40 7.2 N 17 26 9 14 1017.8 1017.7 0.0
27/09:00am 17.8 13.7 6.0 46 5.8 N 17 24 9 13 1018.3 1018.2 0.0
27/08:30am 16.5 12.3 5.5 48 5.3 NNE 17 26 9 14 1018.2 1018.1 0.0
27/08:00am 15.9 11.6 5.2 49 5.1 NNE 17 24 9 13 1018.0 1017.9 0.0
27/07:30am 15.4 11.0 4.8 49 5.0 NNE 17 26 9 14 1017.9 1017.8 0.0
27/07:00am 14.8 11.5 4.5 50 4.8 N 11 19 6 10 1018.4 1018.3 0.0
27/06:30am 14.8 11.1 4.2 49 4.9 NNE 13 20 7 11 1018.3 1018.2 0.0
27/06:00am 14.9 10.7 4.0 48 5.0 NNE 15 26 8 14 1018.1 1018.0 0.0
27/05:30am 15.0 10.4 3.8 47 5.2 NNE 17 24 9 13 1017.9 1017.8 0.0
27/05:00am 15.1 10.9 3.9 47 5.2 NNE 15 24 8 13 1017.9 1017.8 0.0
27/04:30am 15.3 11.4 3.5 45 5.4 NNE 13 20 7 11 1017.7 1017.6 0.0
27/04:00am 15.2 11.3 3.4 45 5.4 NNE 13 20 7 11 1017.7 1017.6 0.0
27/03:30am 15.6 11.7 3.4 44 5.6 NNE 13 22 7 12 1017.8 1017.7 0.0
27/03:00am 15.9 12.0 3.4 43 5.7 NNE 13 20 7 11 1018.0 1017.9 0.0
27/02:30am 16.6 12.3 3.3 41 6.2 NNE 15 24 8 13 1018.1 1018.0 0.0
27/02:00am 16.7 12.7 3.1 40 6.3 NNE 13 20 7 11 1018.4 1018.3 0.0
27/01:30am 16.9 12.9 2.9 39 6.4 NNE 13 20 7 11 1018.5 1018.4 0.0
27/01:00am 16.8 13.2 2.8 39 6.4 NNE 11 19 6 10 1018.6 1018.5 0.0
27/12:30am 16.5 12.9 2.9 40 6.2 NNE 11 20 6 11 1018.9 1018.8 0.0
27/12:00am 16.8 13.2 2.8 39 6.4 NNE 11 20 6 11 1019.2 1019.1 0.0
 
Date/Time
EST
Temp
°C
App
Temp
°C
Dew
Point
Rel
Hum
%
Delta-T
°C
Wind Press
QNH
hPa
Press
MSL
hPa
Rain
since 9 am
mm
Dir
 
Spd
km/h
Gust
km/h
Spd
kts
Gust
kts
26/11:30pm 16.8 13.2 2.8 39 6.4 NNE 11 19 6 10 1019.6 1019.5 0.0
26/11:00pm 17.7 14.5 2.8 37 6.9 NNE 9 15 5 8 1020.0 1019.9 0.0
26/10:30pm 17.7 14.4 2.5 36 7.0 NNE 9 17 5 9 1020.2 1020.1 0.0
26/10:00pm 17.7 14.4 2.5 36 7.0 NNE 9 15 5 8 1020.2 1020.1 0.0
26/09:30pm 18.5 15.3 2.8 35 7.3 NNE 9 13 5 7 1020.2 1020.1 0.0
26/09:00pm 18.4 15.1 2.7 35 7.3 NNE 9 13 5 7 1020.3 1020.2 0.0
26/08:30pm 19.1 15.9 2.9 34 7.6 NNE 9 13 5 7 1020.5 1020.4 0.0
26/08:00pm 19.6 16.8 2.9 33 7.8 NNE 7 13 4 7 1020.7 1020.5 0.0
26/07:30pm 20.1 17.2 2.5 31 8.2 NNE 7 9 4 5 1020.7 1020.5 0.0
26/07:00pm 21.2 18.4 3.0 30 8.6 NNE 7 11 4 6 1020.4 1020.3 0.0
26/06:30pm 22.2 19.4 3.3 29 9.1 NNE 7 11 4 6 1020.3 1020.2 0.0
26/06:00pm 23.7 20.5 3.1 26 10.0 NNE 9 15 5 8 1020.2 1020.1 0.0
26/05:30pm 25.4 22.2 2.8 23 11.1 NNE 9 13 5 7 1020.2 1020.1 0.0
26/05:00pm 26.3 21.4 2.3 21 11.7 N 17 24 9 13 1020.3 1020.2 0.0
26/04:30pm 26.8 21.6 2.7 21 11.9 N 19 28 10 15 1020.5 1020.4 0.0
26/04:00pm 27.2 22.5 3.0 21 12.0 N 17 24 9 13 1020.7 1020.5 0.0
26/03:30pm 27.7 22.9 2.7 20 12.4 N 17 30 9 16 1020.9 1020.7 0.0
26/03:00pm 27.4 23.1 3.2 21 12.0 N 15 26 8 14 1021.1 1020.9 0.0
26/02:30pm 27.0 21.7 2.8 21 12.0 NNW 20 35 11 19 1021.5 1021.3 0.0
26/02:00pm 27.0 21.8 3.5 22 11.7 N 20 32 11 17 1022.0 1021.8 0.0
26/01:30pm 26.8 21.9 4.0 23 11.5 N 19 30 10 16 1022.4 1022.2 0.0
26/01:00pm 26.5 21.6 4.3 24 11.2 N 19 32 10 17 1022.8 1022.6 0.0
26/12:30pm 26.1 21.3 4.6 25 10.9 NNW 19 32 10 17 1023.5 1023.3 0.0
26/12:00pm 25.1 20.2 4.3 26 10.4 N 19 30 10 16 1024.2 1024.1 0.0
26/11:30am 24.4 20.0 4.7 28 9.9 N 17 28 9 15 1024.7 1024.6 0.0
26/11:00am 23.1 19.6 5.5 32 8.9 NNE 13 24 7 13 1025.0 1024.9 0.0
26/10:30am 21.6 18.1 5.5 35 8.1 N 13 17 7 9 1025.6 1025.5 0.0
26/10:00am 19.5 15.9 4.8 38 7.1 N 13 20 7 11 1026.0 1025.9 0.0
26/09:30am 18.1 14.8 4.7 41 6.5 NNE 11 17 6 9 1026.1 1026.0 0.0
26/09:00am 16.4 13.5 4.4 45 5.6 NNE 9 17 5 9 1026.1 1026.0 0.0
26/08:30am 15.4 12.9 4.5 48 5.1 NNE 7 11 4 6 1026.1 1026.0 0.0
26/08:00am 12.4 10.3 4.1 57 3.7 ENE 4 7 2 4 1025.9 1025.8 0.0
26/07:30am 11.4 8.6 3.2 57 3.6 NE 7 9 4 5 1025.8 1025.7 0.0
26/07:00am 11.1 9.7 3.6 60 3.3 CALM 0 0 0 0 1025.7 1025.6 0.0
26/06:30am 11.9 9.4 3.9 58 3.6 NE 6 11 3 6 1025.5 1025.4 0.0
26/06:00am 12.0 9.4 4.0 58 3.6 NE 7 11 4 6 1025.3 1025.2 0.0

Other Formats:

Comma delimited format used in spreadsheet applications
http://www.bom.gov.au/fwo/IDV60801/IDV60801.94827.axf

JavaScript Object Notation format (JSON) in row-major order
http://www.bom.gov.au/fwo/IDV60801/IDV60801.94827.json